sensor_id;sensor_type;location;lat;lon;timestamp;P1;durP1;ratioP1;P2;durP2;ratioP2
65206;SDS011;58477;48.072;11.970;2022-09-20T00:03:37;1.90;;;0.90;;
65206;SDS011;58477;48.072;11.970;2022-09-20T00:06:08;1.10;;;0.80;;
65206;SDS011;58477;48.072;11.970;2022-09-20T00:08:35;0.88;;;0.88;;
65206;SDS011;58477;48.072;11.970;2022-09-20T00:11:01;5.63;;;0.90;;
65206;SDS011;58477;48.072;11.970;2022-09-20T00:13:35;1.80;;;0.80;;
65206;SDS011;58477;48.072;11.970;2022-09-20T00:16:06;6.00;;;1.08;;
65206;SDS011;58477;48.072;11.970;2022-09-20T00:18:33;1.55;;;0.80;;
65206;SDS011;58477;48.072;11.970;2022-09-20T00:20:58;1.10;;;0.68;;
65206;SDS011;58477;48.072;11.970;2022-09-20T00:23:24;1.80;;;1.08;;
65206;SDS011;58477;48.072;11.970;2022-09-20T00:25:53;1.95;;;0.93;;
65206;SDS011;58477;48.072;11.970;2022-09-20T00:28:19;4.45;;;1.00;;
65206;SDS011;58477;48.072;11.970;2022-09-20T00:30:45;1.38;;;0.68;;
65206;SDS011;58477;48.072;11.970;2022-09-20T00:33:10;1.85;;;0.73;;
65206;SDS011;58477;48.072;11.970;2022-09-20T00:35:36;1.75;;;0.90;;
65206;SDS011;58477;48.072;11.970;2022-09-20T00:38:01;2.10;;;0.70;;
65206;SDS011;58477;48.072;11.970;2022-09-20T00:40:26;0.70;;;0.70;;
65206;SDS011;58477;48.072;11.970;2022-09-20T00:42:52;1.35;;;0.80;;
65206;SDS011;58477;48.072;11.970;2022-09-20T00:52:53;3.42;;;0.68;;
65206;SDS011;58477;48.072;11.970;2022-09-20T00:55:26;0.70;;;0.70;;
65206;SDS011;58477;48.072;11.970;2022-09-20T00:57:53;1.10;;;0.80;;
65206;SDS011;58477;48.072;11.970;2022-09-20T01:00:19;2.38;;;1.08;;
65206;SDS011;58477;48.072;11.970;2022-09-20T01:02:47;1.30;;;0.70;;
65206;SDS011;58477;48.072;11.970;2022-09-20T01:05:18;1.38;;;0.93;;
65206;SDS011;58477;48.072;11.970;2022-09-20T01:07:44;2.40;;;1.00;;
65206;SDS011;58477;48.072;11.970;2022-09-20T01:10:12;1.35;;;1.25;;
65206;SDS011;58477;48.072;11.970;2022-09-20T01:12:38;1.02;;;0.90;;
65206;SDS011;58477;48.072;11.970;2022-09-20T01:15:05;1.67;;;1.00;;
65206;SDS011;58477;48.072;11.970;2022-09-20T01:17:33;0.88;;;0.80;;
65206;SDS011;58477;48.072;11.970;2022-09-20T01:20:09;1.20;;;0.70;;
65206;SDS011;58477;48.072;11.970;2022-09-20T01:25:29;1.17;;;0.82;;
65206;SDS011;58477;48.072;11.970;2022-09-20T01:28:14;1.20;;;0.75;;
65206;SDS011;58477;48.072;11.970;2022-09-20T01:30:42;3.78;;;1.00;;
65206;SDS011;58477;48.072;11.970;2022-09-20T01:35:51;1.10;;;1.00;;
65206;SDS011;58477;48.072;11.970;2022-09-20T01:38:24;1.05;;;0.82;;
65206;SDS011;58477;48.072;11.970;2022-09-20T01:43:57;0.70;;;0.70;;
65206;SDS011;58477;48.072;11.970;2022-09-20T01:46:35;0.90;;;0.73;;
65206;SDS011;58477;48.072;11.970;2022-09-20T01:55:06;4.80;;;0.88;;
65206;SDS011;58477;48.072;11.970;2022-09-20T01:57:58;7.70;;;1.30;;
65206;SDS011;58477;48.072;11.970;2022-09-20T02:06:14;1.23;;;0.70;;
65206;SDS011;58477;48.072;11.970;2022-09-20T02:20:02;1.20;;;0.98;;
65206;SDS011;58477;48.072;11.970;2022-09-20T02:22:50;0.90;;;0.90;;
65206;SDS011;58477;48.072;11.970;2022-09-20T02:30:49;2.88;;;1.20;;
65206;SDS011;58477;48.072;11.970;2022-09-20T02:38:38;2.78;;;0.98;;
65206;SDS011;58477;48.072;11.970;2022-09-20T02:44:08;1.42;;;1.15;;
65206;SDS011;58477;48.072;11.970;2022-09-20T02:51:57;2.90;;;0.90;;
65206;SDS011;58477;48.072;11.970;2022-09-20T02:57:28;2.25;;;0.93;;
65206;SDS011;58477;48.072;11.970;2022-09-20T03:00:04;1.10;;;0.93;;
65206;SDS011;58477;48.072;11.970;2022-09-20T03:05:35;2.25;;;1.00;;
65206;SDS011;58477;48.072;11.970;2022-09-20T03:13:25;3.53;;;0.90;;
65206;SDS011;58477;48.072;11.970;2022-09-20T03:16:28;1.52;;;0.90;;
65206;SDS011;58477;48.072;11.970;2022-09-20T03:19:12;2.85;;;0.90;;
65206;SDS011;58477;48.072;11.970;2022-09-20T03:22:06;3.67;;;1.05;;
65206;SDS011;58477;48.072;11.970;2022-09-20T03:32:55;5.40;;;0.85;;
65206;SDS011;58477;48.072;11.970;2022-09-20T03:36:11;4.65;;;0.98;;
65206;SDS011;58477;48.072;11.970;2022-09-20T03:59:36;4.45;;;1.55;;
65206;SDS011;58477;48.072;11.970;2022-09-20T04:04:56;3.22;;;1.10;;
65206;SDS011;58477;48.072;11.970;2022-09-20T04:18:51;3.25;;;1.23;;
65206;SDS011;58477;48.072;11.970;2022-09-20T04:21:27;1.15;;;1.00;;
65206;SDS011;58477;48.072;11.970;2022-09-20T04:26:34;3.75;;;1.20;;
65206;SDS011;58477;48.072;11.970;2022-09-20T04:34:42;2.63;;;1.30;;
65206;SDS011;58477;48.072;11.970;2022-09-20T04:37:35;1.57;;;1.47;;
65206;SDS011;58477;48.072;11.970;2022-09-20T04:40:19;4.72;;;1.30;;
65206;SDS011;58477;48.072;11.970;2022-09-20T04:45:52;2.20;;;1.10;;
65206;SDS011;58477;48.072;11.970;2022-09-20T04:51:10;2.83;;;1.23;;
65206;SDS011;58477;48.072;11.970;2022-09-20T05:11:33;4.00;;;1.48;;
65206;SDS011;58477;48.072;11.970;2022-09-20T05:17:23;2.22;;;1.17;;
65206;SDS011;58477;48.072;11.970;2022-09-20T05:31:50;3.28;;;1.60;;
65206;SDS011;58477;48.072;11.970;2022-09-20T05:34:32;2.45;;;1.40;;
65206;SDS011;58477;48.072;11.970;2022-09-20T05:37:01;4.40;;;1.33;;
65206;SDS011;58477;48.072;11.970;2022-09-20T05:45:20;3.53;;;1.33;;
65206;SDS011;58477;48.072;11.970;2022-09-20T05:47:58;5.30;;;1.50;;
65206;SDS011;58477;48.072;11.970;2022-09-20T06:13:21;2.95;;;1.40;;
65206;SDS011;58477;48.072;11.970;2022-09-20T06:15:53;3.88;;;1.38;;
65206;SDS011;58477;48.072;11.970;2022-09-20T06:18:24;5.75;;;1.60;;
65206;SDS011;58477;48.072;11.970;2022-09-20T06:20:59;3.95;;;1.40;;
65206;SDS011;58477;48.072;11.970;2022-09-20T06:23:33;2.30;;;1.40;;
65206;SDS011;58477;48.072;11.970;2022-09-20T06:26:05;2.95;;;1.30;;
65206;SDS011;58477;48.072;11.970;2022-09-20T06:28:39;1.85;;;1.45;;
65206;SDS011;58477;48.072;11.970;2022-09-20T06:31:08;1.48;;;1.15;;
65206;SDS011;58477;48.072;11.970;2022-09-20T06:34:17;2.63;;;1.50;;
65206;SDS011;58477;48.072;11.970;2022-09-20T06:36:32;3.60;;;1.80;;
65206;SDS011;58477;48.072;11.970;2022-09-20T06:42:42;3.97;;;1.40;;
65206;SDS011;58477;48.072;11.970;2022-09-20T06:45:08;4.60;;;1.23;;
65206;SDS011;58477;48.072;11.970;2022-09-20T06:47:34;1.80;;;1.52;;
65206;SDS011;58477;48.072;11.970;2022-09-20T06:50:00;7.28;;;1.30;;
65206;SDS011;58477;48.072;11.970;2022-09-20T06:52:25;4.38;;;1.27;;
65206;SDS011;58477;48.072;11.970;2022-09-20T06:54:52;1.98;;;1.30;;
65206;SDS011;58477;48.072;11.970;2022-09-20T06:57:21;2.35;;;1.55;;
65206;SDS011;58477;48.072;11.970;2022-09-20T06:59:51;3.20;;;1.20;;
65206;SDS011;58477;48.072;11.970;2022-09-20T07:02:16;1.45;;;1.10;;
65206;SDS011;58477;48.072;11.970;2022-09-20T07:04:42;3.85;;;1.40;;
65206;SDS011;58477;48.072;11.970;2022-09-20T07:07:11;4.20;;;1.52;;
65206;SDS011;58477;48.072;11.970;2022-09-20T07:09:41;2.50;;;1.52;;
65206;SDS011;58477;48.072;11.970;2022-09-20T07:12:07;5.95;;;2.00;;
65206;SDS011;58477;48.072;11.970;2022-09-20T07:14:34;4.32;;;2.15;;
65206;SDS011;58477;48.072;11.970;2022-09-20T07:17:00;9.45;;;2.33;;
65206;SDS011;58477;48.072;11.970;2022-09-20T07:19:25;5.88;;;1.92;;
65206;SDS011;58477;48.072;11.970;2022-09-20T07:21:50;2.90;;;2.10;;
65206;SDS011;58477;48.072;11.970;2022-09-20T07:24:16;3.22;;;1.90;;
65206;SDS011;58477;48.072;11.970;2022-09-20T07:26:55;3.97;;;2.03;;
65206;SDS011;58477;48.072;11.970;2022-09-20T07:29:22;6.47;;;2.45;;
65206;SDS011;58477;48.072;11.970;2022-09-20T07:31:48;4.75;;;2.25;;
65206;SDS011;58477;48.072;11.970;2022-09-20T07:34:14;9.23;;;2.88;;
65206;SDS011;58477;48.072;11.970;2022-09-20T07:36:42;4.47;;;2.28;;
65206;SDS011;58477;48.072;11.970;2022-09-20T07:39:08;4.45;;;2.35;;
65206;SDS011;58477;48.072;11.970;2022-09-20T07:41:33;3.80;;;1.88;;
65206;SDS011;58477;48.072;11.970;2022-09-20T07:43:59;4.80;;;1.70;;
65206;SDS011;58477;48.072;11.970;2022-09-20T07:46:46;6.05;;;2.22;;
65206;SDS011;58477;48.072;11.970;2022-09-20T07:49:12;2.63;;;2.13;;
65206;SDS011;58477;48.072;11.970;2022-09-20T07:51:38;3.13;;;2.13;;
65206;SDS011;58477;48.072;11.970;2022-09-20T07:54:03;2.40;;;2.20;;
65206;SDS011;58477;48.072;11.970;2022-09-20T07:56:29;4.50;;;2.50;;
65206;SDS011;58477;48.072;11.970;2022-09-20T07:58:54;7.85;;;2.22;;
65206;SDS011;58477;48.072;11.970;2022-09-20T08:01:19;2.95;;;2.10;;
65206;SDS011;58477;48.072;11.970;2022-09-20T08:03:46;7.80;;;2.50;;
65206;SDS011;58477;48.072;11.970;2022-09-20T08:06:12;5.40;;;2.70;;
65206;SDS011;58477;48.072;11.970;2022-09-20T08:08:42;5.57;;;2.13;;
65206;SDS011;58477;48.072;11.970;2022-09-20T08:11:12;5.40;;;1.98;;
65206;SDS011;58477;48.072;11.970;2022-09-20T08:13:49;4.78;;;2.15;;
65206;SDS011;58477;48.072;11.970;2022-09-20T08:16:16;2.88;;;2.10;;
65206;SDS011;58477;48.072;11.970;2022-09-20T08:18:46;5.15;;;2.50;;
65206;SDS011;58477;48.072;11.970;2022-09-20T08:21:27;4.25;;;2.22;;
65206;SDS011;58477;48.072;11.970;2022-09-20T08:23:55;3.00;;;2.40;;
65206;SDS011;58477;48.072;11.970;2022-09-20T08:26:22;4.43;;;2.50;;
65206;SDS011;58477;48.072;11.970;2022-09-20T08:28:55;4.25;;;2.63;;
65206;SDS011;58477;48.072;11.970;2022-09-20T08:31:23;5.15;;;3.10;;
65206;SDS011;58477;48.072;11.970;2022-09-20T08:33:50;7.90;;;2.90;;
65206;SDS011;58477;48.072;11.970;2022-09-20T08:36:21;6.35;;;2.97;;
65206;SDS011;58477;48.072;11.970;2022-09-20T08:38:48;3.03;;;2.60;;
65206;SDS011;58477;48.072;11.970;2022-09-20T08:41:16;7.95;;;3.03;;
65206;SDS011;58477;48.072;11.970;2022-09-20T08:44:05;7.03;;;3.17;;
65206;SDS011;58477;48.072;11.970;2022-09-20T08:46:38;6.93;;;3.05;;
65206;SDS011;58477;48.072;11.970;2022-09-20T08:49:14;5.95;;;2.80;;
65206;SDS011;58477;48.072;11.970;2022-09-20T08:51:48;6.05;;;3.35;;
65206;SDS011;58477;48.072;11.970;2022-09-20T08:54:14;3.67;;;2.80;;
65206;SDS011;58477;48.072;11.970;2022-09-20T08:56:40;7.07;;;2.83;;
65206;SDS011;58477;48.072;11.970;2022-09-20T08:59:17;3.97;;;2.28;;
65206;SDS011;58477;48.072;11.970;2022-09-20T09:01:48;4.15;;;2.55;;
65206;SDS011;58477;48.072;11.970;2022-09-20T09:04:19;11.75;;;2.70;;
65206;SDS011;58477;48.072;11.970;2022-09-20T09:06:48;6.00;;;2.67;;
65206;SDS011;58477;48.072;11.970;2022-09-20T09:09:20;4.53;;;2.63;;
65206;SDS011;58477;48.072;11.970;2022-09-20T09:11:48;7.10;;;2.80;;
65206;SDS011;58477;48.072;11.970;2022-09-20T09:14:25;5.65;;;2.95;;
65206;SDS011;58477;48.072;11.970;2022-09-20T09:17:12;7.80;;;3.22;;
65206;SDS011;58477;48.072;11.970;2022-09-20T09:19:52;5.53;;;2.95;;
65206;SDS011;58477;48.072;11.970;2022-09-20T09:27:34;5.65;;;2.72;;
65206;SDS011;58477;48.072;11.970;2022-09-20T09:30:00;5.20;;;2.42;;
65206;SDS011;58477;48.072;11.970;2022-09-20T09:32:30;7.00;;;2.67;;
65206;SDS011;58477;48.072;11.970;2022-09-20T09:37:55;7.40;;;2.33;;
65206;SDS011;58477;48.072;11.970;2022-09-20T09:40:25;5.05;;;2.88;;
65206;SDS011;58477;48.072;11.970;2022-09-20T09:42:56;5.65;;;2.70;;
65206;SDS011;58477;48.072;11.970;2022-09-20T09:45:36;7.43;;;2.55;;
65206;SDS011;58477;48.072;11.970;2022-09-20T09:53:13;5.72;;;2.10;;
65206;SDS011;58477;48.072;11.970;2022-09-20T10:01:49;3.33;;;1.58;;
65206;SDS011;58477;48.072;11.970;2022-09-20T10:12:33;7.05;;;2.38;;
65206;SDS011;58477;48.072;11.970;2022-09-20T10:15:14;4.10;;;2.15;;
65206;SDS011;58477;48.072;11.970;2022-09-20T10:18:07;5.03;;;1.80;;
65206;SDS011;58477;48.072;11.970;2022-09-20T10:29:06;2.97;;;1.40;;
65206;SDS011;58477;48.072;11.970;2022-09-20T10:37:39;1.58;;;1.00;;
65206;SDS011;58477;48.072;11.970;2022-09-20T10:46:14;2.33;;;1.45;;
65206;SDS011;58477;48.072;11.970;2022-09-20T10:48:45;9.50;;;1.88;;
65206;SDS011;58477;48.072;11.970;2022-09-20T10:51:38;3.40;;;1.20;;
65206;SDS011;58477;48.072;11.970;2022-09-20T10:54:23;6.63;;;1.50;;
65206;SDS011;58477;48.072;11.970;2022-09-20T11:07:15;5.00;;;1.30;;
65206;SDS011;58477;48.072;11.970;2022-09-20T11:09:50;2.75;;;1.20;;
65206;SDS011;58477;48.072;11.970;2022-09-20T11:12:35;3.38;;;0.88;;
65206;SDS011;58477;48.072;11.970;2022-09-20T11:18:10;6.90;;;1.33;;
65206;SDS011;58477;48.072;11.970;2022-09-20T11:20:52;2.28;;;0.80;;
65206;SDS011;58477;48.072;11.970;2022-09-20T11:23:27;2.47;;;0.65;;
65206;SDS011;58477;48.072;11.970;2022-09-20T11:26:00;2.22;;;1.05;;
65206;SDS011;58477;48.072;11.970;2022-09-20T11:28:35;0.80;;;0.80;;
65206;SDS011;58477;48.072;11.970;2022-09-20T11:34:11;2.75;;;1.80;;
65206;SDS011;58477;48.072;11.970;2022-09-20T11:36:55;2.30;;;0.77;;
65206;SDS011;58477;48.072;11.970;2022-09-20T11:42:01;5.22;;;1.10;;
65206;SDS011;58477;48.072;11.970;2022-09-20T11:44:29;1.13;;;1.02;;
65206;SDS011;58477;48.072;11.970;2022-09-20T11:47:56;2.55;;;1.10;;
65206;SDS011;58477;48.072;11.970;2022-09-20T11:58:23;2.30;;;1.17;;
65206;SDS011;58477;48.072;11.970;2022-09-20T12:00:50;3.33;;;1.23;;
65206;SDS011;58477;48.072;11.970;2022-09-20T12:03:28;4.20;;;1.30;;
65206;SDS011;58477;48.072;11.970;2022-09-20T12:05:58;5.97;;;1.42;;
65206;SDS011;58477;48.072;11.970;2022-09-20T12:08:29;2.95;;;1.00;;
65206;SDS011;58477;48.072;11.970;2022-09-20T12:11:07;2.20;;;1.23;;
65206;SDS011;58477;48.072;11.970;2022-09-20T12:13:37;3.15;;;1.52;;
65206;SDS011;58477;48.072;11.970;2022-09-20T12:16:06;6.22;;;1.17;;
65206;SDS011;58477;48.072;11.970;2022-09-20T12:18:46;3.40;;;1.42;;
65206;SDS011;58477;48.072;11.970;2022-09-20T12:21:26;3.13;;;1.20;;
65206;SDS011;58477;48.072;11.970;2022-09-20T12:33:55;3.33;;;1.33;;
65206;SDS011;58477;48.072;11.970;2022-09-20T12:36:21;1.83;;;1.00;;
65206;SDS011;58477;48.072;11.970;2022-09-20T12:38:47;2.80;;;1.10;;
65206;SDS011;58477;48.072;11.970;2022-09-20T12:41:19;2.70;;;1.23;;
65206;SDS011;58477;48.072;11.970;2022-09-20T12:43:50;4.95;;;1.40;;
65206;SDS011;58477;48.072;11.970;2022-09-20T12:46:31;3.45;;;1.25;;
65206;SDS011;58477;48.072;11.970;2022-09-20T12:49:14;4.28;;;1.35;;
65206;SDS011;58477;48.072;11.970;2022-09-20T12:52:21;3.03;;;1.17;;
65206;SDS011;58477;48.072;11.970;2022-09-20T12:55:12;3.55;;;1.30;;
65206;SDS011;58477;48.072;11.970;2022-09-20T12:58:16;4.00;;;1.25;;
65206;SDS011;58477;48.072;11.970;2022-09-20T13:03:30;2.30;;;1.00;;
65206;SDS011;58477;48.072;11.970;2022-09-20T13:11:20;2.85;;;1.30;;
65206;SDS011;58477;48.072;11.970;2022-09-20T13:19:22;9.80;;;1.38;;
65206;SDS011;58477;48.072;11.970;2022-09-20T13:24:25;2.45;;;1.00;;
65206;SDS011;58477;48.072;11.970;2022-09-20T13:26:54;4.22;;;1.33;;
65206;SDS011;58477;48.072;11.970;2022-09-20T13:29:38;3.65;;;1.10;;
65206;SDS011;58477;48.072;11.970;2022-09-20T13:35:03;1.38;;;0.95;;
65206;SDS011;58477;48.072;11.970;2022-09-20T13:37:34;7.68;;;1.33;;
65206;SDS011;58477;48.072;11.970;2022-09-20T13:40:01;3.03;;;1.08;;
65206;SDS011;58477;48.072;11.970;2022-09-20T13:42:29;6.57;;;1.05;;
65206;SDS011;58477;48.072;11.970;2022-09-20T13:44:59;4.93;;;0.90;;
65206;SDS011;58477;48.072;11.970;2022-09-20T13:47:28;5.50;;;1.27;;
65206;SDS011;58477;48.072;11.970;2022-09-20T13:50:08;4.40;;;1.20;;
65206;SDS011;58477;48.072;11.970;2022-09-20T13:52:45;3.72;;;1.02;;
65206;SDS011;58477;48.072;11.970;2022-09-20T13:58:05;4.85;;;1.10;;
65206;SDS011;58477;48.072;11.970;2022-09-20T14:00:33;5.57;;;0.88;;
65206;SDS011;58477;48.072;11.970;2022-09-20T14:03:02;2.72;;;1.02;;
65206;SDS011;58477;48.072;11.970;2022-09-20T14:05:28;2.75;;;1.00;;
65206;SDS011;58477;48.072;11.970;2022-09-20T14:07:55;2.42;;;1.10;;
65206;SDS011;58477;48.072;11.970;2022-09-20T14:10:25;4.72;;;1.00;;
65206;SDS011;58477;48.072;11.970;2022-09-20T14:12:59;3.65;;;1.00;;
65206;SDS011;58477;48.072;11.970;2022-09-20T14:15:32;3.08;;;0.85;;
65206;SDS011;58477;48.072;11.970;2022-09-20T14:18:01;1.50;;;0.93;;
65206;SDS011;58477;48.072;11.970;2022-09-20T14:20:28;2.10;;;1.10;;
65206;SDS011;58477;48.072;11.970;2022-09-20T14:22:54;2.40;;;1.00;;
65206;SDS011;58477;48.072;11.970;2022-09-20T14:25:21;4.55;;;1.25;;
65206;SDS011;58477;48.072;11.970;2022-09-20T14:28:03;3.50;;;1.20;;
65206;SDS011;58477;48.072;11.970;2022-09-20T14:30:31;4.93;;;1.13;;
65206;SDS011;58477;48.072;11.970;2022-09-20T14:33:00;6.82;;;1.20;;
65206;SDS011;58477;48.072;11.970;2022-09-20T14:35:27;3.63;;;1.05;;
65206;SDS011;58477;48.072;11.970;2022-09-20T14:40:27;4.88;;;1.10;;
65206;SDS011;58477;48.072;11.970;2022-09-20T14:43:03;2.25;;;1.23;;
65206;SDS011;58477;48.072;11.970;2022-09-20T14:45:36;3.75;;;1.10;;
65206;SDS011;58477;48.072;11.970;2022-09-20T14:48:04;3.78;;;1.23;;
65206;SDS011;58477;48.072;11.970;2022-09-20T14:53:36;2.58;;;1.08;;
65206;SDS011;58477;48.072;11.970;2022-09-20T14:58:31;3.95;;;1.02;;
65206;SDS011;58477;48.072;11.970;2022-09-20T15:01:02;2.38;;;1.10;;
65206;SDS011;58477;48.072;11.970;2022-09-20T15:03:31;3.88;;;1.13;;
65206;SDS011;58477;48.072;11.970;2022-09-20T15:05:58;4.05;;;1.42;;
65206;SDS011;58477;48.072;11.970;2022-09-20T15:08:24;6.90;;;1.52;;
65206;SDS011;58477;48.072;11.970;2022-09-20T15:10:50;7.70;;;1.23;;
65206;SDS011;58477;48.072;11.970;2022-09-20T15:13:16;3.05;;;1.17;;
65206;SDS011;58477;48.072;11.970;2022-09-20T15:15:41;2.83;;;1.05;;
65206;SDS011;58477;48.072;11.970;2022-09-20T15:18:29;4.35;;;1.30;;
65206;SDS011;58477;48.072;11.970;2022-09-20T15:20:58;2.45;;;1.10;;
65206;SDS011;58477;48.072;11.970;2022-09-20T15:23:25;6.90;;;0.93;;
65206;SDS011;58477;48.072;11.970;2022-09-20T15:25:51;2.80;;;1.10;;
65206;SDS011;58477;48.072;11.970;2022-09-20T15:28:17;1.67;;;0.85;;
65206;SDS011;58477;48.072;11.970;2022-09-20T15:30:43;6.40;;;1.13;;
65206;SDS011;58477;48.072;11.970;2022-09-20T15:33:10;3.63;;;0.88;;
65206;SDS011;58477;48.072;11.970;2022-09-20T15:35:37;2.22;;;1.10;;
65206;SDS011;58477;48.072;11.970;2022-09-20T15:38:03;3.55;;;1.90;;
65206;SDS011;58477;48.072;11.970;2022-09-20T15:40:30;5.72;;;1.65;;
65206;SDS011;58477;48.072;11.970;2022-09-20T15:42:56;4.45;;;1.30;;
65206;SDS011;58477;48.072;11.970;2022-09-20T15:45:24;2.47;;;1.30;;
65206;SDS011;58477;48.072;11.970;2022-09-20T15:47:51;3.00;;;1.25;;
65206;SDS011;58477;48.072;11.970;2022-09-20T15:50:20;5.32;;;0.88;;
65206;SDS011;58477;48.072;11.970;2022-09-20T15:52:49;2.50;;;1.00;;
65206;SDS011;58477;48.072;11.970;2022-09-20T15:55:18;2.67;;;1.15;;
65206;SDS011;58477;48.072;11.970;2022-09-20T15:57:44;4.43;;;1.33;;
65206;SDS011;58477;48.072;11.970;2022-09-20T16:00:09;2.08;;;1.48;;
65206;SDS011;58477;48.072;11.970;2022-09-20T16:02:35;4.68;;;1.67;;
65206;SDS011;58477;48.072;11.970;2022-09-20T16:05:01;4.90;;;1.50;;
65206;SDS011;58477;48.072;11.970;2022-09-20T16:07:26;4.32;;;1.90;;
65206;SDS011;58477;48.072;11.970;2022-09-20T16:09:53;6.78;;;2.53;;
65206;SDS011;58477;48.072;11.970;2022-09-20T16:12:19;5.35;;;1.83;;
65206;SDS011;58477;48.072;11.970;2022-09-20T16:14:46;7.15;;;2.28;;
65206;SDS011;58477;48.072;11.970;2022-09-20T16:17:11;3.20;;;1.80;;
65206;SDS011;58477;48.072;11.970;2022-09-20T16:19:37;1.55;;;1.00;;
65206;SDS011;58477;48.072;11.970;2022-09-20T16:22:03;7.07;;;1.17;;
65206;SDS011;58477;48.072;11.970;2022-09-20T16:24:29;2.72;;;1.60;;
65206;SDS011;58477;48.072;11.970;2022-09-20T16:26:57;5.05;;;2.13;;
65206;SDS011;58477;48.072;11.970;2022-09-20T16:29:25;3.20;;;1.67;;
65206;SDS011;58477;48.072;11.970;2022-09-20T16:31:52;5.22;;;2.00;;
65206;SDS011;58477;48.072;11.970;2022-09-20T16:37:01;4.22;;;2.40;;
65206;SDS011;58477;48.072;11.970;2022-09-20T16:39:46;5.38;;;2.13;;
65206;SDS011;58477;48.072;11.970;2022-09-20T16:42:12;5.60;;;2.90;;
65206;SDS011;58477;48.072;11.970;2022-09-20T16:44:41;3.58;;;2.50;;
65206;SDS011;58477;48.072;11.970;2022-09-20T16:47:09;5.28;;;1.85;;
65206;SDS011;58477;48.072;11.970;2022-09-20T16:49:36;1.48;;;1.30;;
65206;SDS011;58477;48.072;11.970;2022-09-20T16:52:08;3.05;;;1.70;;
65206;SDS011;58477;48.072;11.970;2022-09-20T16:54:35;3.35;;;1.50;;
65206;SDS011;58477;48.072;11.970;2022-09-20T16:57:01;2.72;;;1.50;;
65206;SDS011;58477;48.072;11.970;2022-09-20T16:59:26;4.60;;;2.03;;
65206;SDS011;58477;48.072;11.970;2022-09-20T17:01:52;5.78;;;2.00;;
65206;SDS011;58477;48.072;11.970;2022-09-20T17:04:17;1.95;;;1.33;;
65206;SDS011;58477;48.072;11.970;2022-09-20T17:06:45;3.38;;;1.70;;
65206;SDS011;58477;48.072;11.970;2022-09-20T17:09:12;1.98;;;1.25;;
65206;SDS011;58477;48.072;11.970;2022-09-20T17:11:39;5.53;;;2.00;;
65206;SDS011;58477;48.072;11.970;2022-09-20T17:14:13;3.40;;;1.30;;
65206;SDS011;58477;48.072;11.970;2022-09-20T17:16:41;5.82;;;1.48;;
65206;SDS011;58477;48.072;11.970;2022-09-20T17:19:08;1.50;;;1.20;;
65206;SDS011;58477;48.072;11.970;2022-09-20T17:21:36;3.00;;;1.80;;
65206;SDS011;58477;48.072;11.970;2022-09-20T17:24:05;2.28;;;1.40;;
65206;SDS011;58477;48.072;11.970;2022-09-20T17:26:32;2.88;;;1.20;;
65206;SDS011;58477;48.072;11.970;2022-09-20T17:29:01;3.65;;;1.50;;
65206;SDS011;58477;48.072;11.970;2022-09-20T17:31:29;3.15;;;2.17;;
65206;SDS011;58477;48.072;11.970;2022-09-20T17:33:57;2.92;;;1.83;;
65206;SDS011;58477;48.072;11.970;2022-09-20T17:36:32;8.43;;;1.90;;
65206;SDS011;58477;48.072;11.970;2022-09-20T17:38:59;3.10;;;1.85;;
65206;SDS011;58477;48.072;11.970;2022-09-20T17:41:26;2.83;;;1.50;;
65206;SDS011;58477;48.072;11.970;2022-09-20T17:43:56;2.55;;;1.30;;
65206;SDS011;58477;48.072;11.970;2022-09-20T17:46:27;3.72;;;1.80;;
65206;SDS011;58477;48.072;11.970;2022-09-20T17:48:57;5.03;;;1.60;;
65206;SDS011;58477;48.072;11.970;2022-09-20T17:51:29;6.63;;;1.70;;
65206;SDS011;58477;48.072;11.970;2022-09-20T17:54:02;3.35;;;1.38;;
65206;SDS011;58477;48.072;11.970;2022-09-20T17:56:28;7.15;;;2.03;;
65206;SDS011;58477;48.072;11.970;2022-09-20T17:58:58;3.67;;;1.50;;
65206;SDS011;58477;48.072;11.970;2022-09-20T18:01:26;3.22;;;1.40;;
65206;SDS011;58477;48.072;11.970;2022-09-20T18:03:53;3.83;;;1.30;;
65206;SDS011;58477;48.072;11.970;2022-09-20T18:06:21;3.15;;;1.58;;
65206;SDS011;58477;48.072;11.970;2022-09-20T18:08:58;6.78;;;1.70;;
65206;SDS011;58477;48.072;11.970;2022-09-20T18:11:31;5.05;;;1.73;;
65206;SDS011;58477;48.072;11.970;2022-09-20T18:14:03;3.63;;;1.80;;
65206;SDS011;58477;48.072;11.970;2022-09-20T18:16:29;2.13;;;1.50;;
65206;SDS011;58477;48.072;11.970;2022-09-20T18:18:55;2.95;;;1.42;;
65206;SDS011;58477;48.072;11.970;2022-09-20T18:21:23;3.05;;;1.77;;
65206;SDS011;58477;48.072;11.970;2022-09-20T18:23:50;3.28;;;1.73;;
65206;SDS011;58477;48.072;11.970;2022-09-20T18:26:23;3.17;;;2.00;;
65206;SDS011;58477;48.072;11.970;2022-09-20T18:28:57;2.65;;;1.80;;
65206;SDS011;58477;48.072;11.970;2022-09-20T18:31:31;5.47;;;2.35;;
65206;SDS011;58477;48.072;11.970;2022-09-20T18:33:58;5.68;;;3.22;;
65206;SDS011;58477;48.072;11.970;2022-09-20T18:36:25;12.13;;;4.65;;
65206;SDS011;58477;48.072;11.970;2022-09-20T18:38:52;8.75;;;3.83;;
65206;SDS011;58477;48.072;11.970;2022-09-20T18:41:25;6.78;;;3.40;;
65206;SDS011;58477;48.072;11.970;2022-09-20T18:43:53;6.53;;;2.85;;
65206;SDS011;58477;48.072;11.970;2022-09-20T18:46:19;5.70;;;2.28;;
65206;SDS011;58477;48.072;11.970;2022-09-20T18:48:52;4.07;;;2.00;;
65206;SDS011;58477;48.072;11.970;2022-09-20T18:51:19;4.70;;;2.47;;
65206;SDS011;58477;48.072;11.970;2022-09-20T18:53:45;4.78;;;1.60;;
65206;SDS011;58477;48.072;11.970;2022-09-20T18:58:53;4.55;;;1.67;;
65206;SDS011;58477;48.072;11.970;2022-09-20T19:09:38;2.47;;;1.80;;
65206;SDS011;58477;48.072;11.970;2022-09-20T19:12:18;3.50;;;1.77;;
65206;SDS011;58477;48.072;11.970;2022-09-20T19:15:00;3.90;;;1.70;;
65206;SDS011;58477;48.072;11.970;2022-09-20T19:17:48;3.47;;;1.70;;
65206;SDS011;58477;48.072;11.970;2022-09-20T19:28:32;4.30;;;1.27;;
65206;SDS011;58477;48.072;11.970;2022-09-20T19:30:58;3.30;;;1.00;;
65206;SDS011;58477;48.072;11.970;2022-09-20T19:33:24;1.63;;;1.15;;
65206;SDS011;58477;48.072;11.970;2022-09-20T19:35:49;6.10;;;1.30;;
65206;SDS011;58477;48.072;11.970;2022-09-20T19:41:18;3.42;;;1.10;;
65206;SDS011;58477;48.072;11.970;2022-09-20T19:52:18;1.90;;;1.20;;
65206;SDS011;58477;48.072;11.970;2022-09-20T19:54:44;3.83;;;1.17;;
65206;SDS011;58477;48.072;11.970;2022-09-20T19:57:13;2.65;;;1.10;;
65206;SDS011;58477;48.072;11.970;2022-09-20T19:59:43;4.57;;;1.20;;
65206;SDS011;58477;48.072;11.970;2022-09-20T20:02:10;4.82;;;1.20;;
65206;SDS011;58477;48.072;11.970;2022-09-20T20:04:36;2.60;;;1.08;;
65206;SDS011;58477;48.072;11.970;2022-09-20T20:07:14;1.33;;;1.10;;
65206;SDS011;58477;48.072;11.970;2022-09-20T20:12:42;4.88;;;1.40;;
65206;SDS011;58477;48.072;11.970;2022-09-20T20:21:23;3.10;;;1.90;;
65206;SDS011;58477;48.072;11.970;2022-09-20T20:24:44;3.83;;;1.45;;
65206;SDS011;58477;48.072;11.970;2022-09-20T20:26:58;2.30;;;1.50;;
65206;SDS011;58477;48.072;11.970;2022-09-20T20:29:23;5.18;;;1.70;;
65206;SDS011;58477;48.072;11.970;2022-09-20T20:31:57;4.43;;;1.60;;
65206;SDS011;58477;48.072;11.970;2022-09-20T20:34:23;2.60;;;1.25;;
65206;SDS011;58477;48.072;11.970;2022-09-20T20:36:50;2.08;;;1.40;;
65206;SDS011;58477;48.072;11.970;2022-09-20T20:39:17;4.20;;;1.63;;
65206;SDS011;58477;48.072;11.970;2022-09-20T20:41:42;8.05;;;1.65;;
65206;SDS011;58477;48.072;11.970;2022-09-20T20:44:08;2.50;;;1.73;;
65206;SDS011;58477;48.072;11.970;2022-09-20T20:46:34;2.90;;;1.85;;
65206;SDS011;58477;48.072;11.970;2022-09-20T20:49:03;4.60;;;1.90;;